sensor_id;sensor_type;location;lat;lon;timestamp;pressure;altitude;pressure_sealevel;temperature
69435;BMP180;56625;54.322;18.582;2022-09-03T00:00:33;101671.60;;;12.80
69435;BMP180;56625;54.322;18.582;2022-09-03T00:03:30;101669.40;;;12.80
69435;BMP180;56625;54.322;18.582;2022-09-03T00:06:21;101675.40;;;12.70
69435;BMP180;56625;54.322;18.582;2022-09-03T00:09:16;101671.00;;;12.60
69435;BMP180;56625;54.322;18.582;2022-09-03T00:11:57;101673.60;;;12.40
69435;BMP180;56625;54.322;18.582;2022-09-03T00:14:36;101676.00;;;12.30
69435;BMP180;56625;54.322;18.582;2022-09-03T00:17:19;101672.00;;;12.30
69435;BMP180;56625;54.322;18.582;2022-09-03T00:22:57;101670.60;;;12.30
69435;BMP180;56625;54.322;18.582;2022-09-03T00:25:58;101666.40;;;12.40
69435;BMP180;56625;54.322;18.582;2022-09-03T00:28:40;101660.20;;;12.50
69435;BMP180;56625;54.322;18.582;2022-09-03T00:31:17;101665.40;;;12.60
69435;BMP180;56625;54.322;18.582;2022-09-03T00:33:52;101662.00;;;12.70
69435;BMP180;56625;54.322;18.582;2022-09-03T00:36:44;101662.60;;;12.70
69435;BMP180;56625;54.322;18.582;2022-09-03T00:39:16;101663.20;;;12.70
69435;BMP180;56625;54.322;18.582;2022-09-03T00:48:11;101673.20;;;13.00
69435;BMP180;56625;54.322;18.582;2022-09-03T00:54:15;101663.00;;;13.00
69435;BMP180;56625;54.322;18.582;2022-09-03T00:57:01;101665.20;;;13.00
69435;BMP180;56625;54.322;18.582;2022-09-03T01:11:39;101680.20;;;13.24
69435;BMP180;56625;54.322;18.582;2022-09-03T01:14:44;101679.60;;;13.24
69435;BMP180;56625;54.322;18.582;2022-09-03T01:17:29;101686.20;;;13.30
69435;BMP180;56625;54.322;18.582;2022-09-03T01:20:36;101688.80;;;13.38
69435;BMP180;56625;54.322;18.582;2022-09-03T01:26:33;101702.00;;;13.40
69435;BMP180;56625;54.322;18.582;2022-09-03T01:32:06;101704.80;;;13.40
69435;BMP180;56625;54.322;18.582;2022-09-03T01:41:19;101696.20;;;13.50
69435;BMP180;56625;54.322;18.582;2022-09-03T01:48:15;101692.40;;;13.50
69435;BMP180;56625;54.322;18.582;2022-09-03T01:50:55;101701.60;;;13.40
69435;BMP180;56625;54.322;18.582;2022-09-03T01:57:43;101706.20;;;13.20
69435;BMP180;56625;54.322;18.582;2022-09-03T02:00:16;101703.80;;;13.20
69435;BMP180;56625;54.322;18.582;2022-09-03T02:02:49;101702.80;;;13.10
69435;BMP180;56625;54.322;18.582;2022-09-03T02:05:26;101697.40;;;13.10
69435;BMP180;56625;54.322;18.582;2022-09-03T02:07:59;101694.80;;;13.10
69435;BMP180;56625;54.322;18.582;2022-09-03T02:10:50;101687.00;;;13.10
69435;BMP180;56625;54.322;18.582;2022-09-03T02:13:25;101682.20;;;13.00
69435;BMP180;56625;54.322;18.582;2022-09-03T02:15:57;101679.80;;;13.00
69435;BMP180;56625;54.322;18.582;2022-09-03T02:18:37;101682.80;;;12.90
69435;BMP180;56625;54.322;18.582;2022-09-03T02:21:08;101682.40;;;12.90
69435;BMP180;56625;54.322;18.582;2022-09-03T02:23:39;101691.80;;;13.00
69435;BMP180;56625;54.322;18.582;2022-09-03T02:26:12;101689.40;;;13.00
69435;BMP180;56625;54.322;18.582;2022-09-03T02:28:41;101686.20;;;13.10
69435;BMP180;56625;54.322;18.582;2022-09-03T02:31:09;101685.80;;;13.10
69435;BMP180;56625;54.322;18.582;2022-09-03T02:33:43;101685.00;;;13.10
69435;BMP180;56625;54.322;18.582;2022-09-03T02:36:16;101681.80;;;13.20
69435;BMP180;56625;54.322;18.582;2022-09-03T02:38:45;101682.80;;;13.20
69435;BMP180;56625;54.322;18.582;2022-09-03T02:41:13;101685.00;;;13.10
69435;BMP180;56625;54.322;18.582;2022-09-03T02:44:01;101682.00;;;13.08
69435;BMP180;56625;54.322;18.582;2022-09-03T02:46:43;101682.80;;;13.00
69435;BMP180;56625;54.322;18.582;2022-09-03T02:49:11;101681.00;;;12.96
69435;BMP180;56625;54.322;18.582;2022-09-03T02:51:42;101682.80;;;12.90
69435;BMP180;56625;54.322;18.582;2022-09-03T02:54:11;101681.80;;;12.80
69435;BMP180;56625;54.322;18.582;2022-09-03T02:56:45;101687.00;;;12.80
69435;BMP180;56625;54.322;18.582;2022-09-03T02:59:15;101685.60;;;12.80
69435;BMP180;56625;54.322;18.582;2022-09-03T03:01:44;101678.60;;;12.80
69435;BMP180;56625;54.322;18.582;2022-09-03T03:04:14;101676.40;;;12.90
69435;BMP180;56625;54.322;18.582;2022-09-03T03:06:42;101675.00;;;13.00
69435;BMP180;56625;54.322;18.582;2022-09-03T03:09:14;101673.00;;;13.10
69435;BMP180;56625;54.322;18.582;2022-09-03T03:11:42;101676.60;;;13.20
69435;BMP180;56625;54.322;18.582;2022-09-03T03:14:10;101669.60;;;13.20
69435;BMP180;56625;54.322;18.582;2022-09-03T03:16:37;101675.00;;;13.20
69435;BMP180;56625;54.322;18.582;2022-09-03T03:19:05;101675.80;;;13.30
69435;BMP180;56625;54.322;18.582;2022-09-03T03:21:33;101677.80;;;13.30
69435;BMP180;56625;54.322;18.582;2022-09-03T03:24:02;101676.00;;;13.40
69435;BMP180;56625;54.322;18.582;2022-09-03T03:26:31;101678.20;;;13.40
69435;BMP180;56625;54.322;18.582;2022-09-03T03:29:01;101672.40;;;13.48
69435;BMP180;56625;54.322;18.582;2022-09-03T03:31:32;101677.20;;;13.50
69435;BMP180;56625;54.322;18.582;2022-09-03T03:34:02;101674.40;;;13.50
69435;BMP180;56625;54.322;18.582;2022-09-03T03:36:32;101675.80;;;13.58
69435;BMP180;56625;54.322;18.582;2022-09-03T03:39:01;101678.60;;;13.50
69435;BMP180;56625;54.322;18.582;2022-09-03T03:41:33;101680.40;;;13.50
69435;BMP180;56625;54.322;18.582;2022-09-03T03:44:05;101684.20;;;13.50
69435;BMP180;56625;54.322;18.582;2022-09-03T03:46:37;101684.60;;;13.40
69435;BMP180;56625;54.322;18.582;2022-09-03T03:49:07;101687.60;;;13.30
69435;BMP180;56625;54.322;18.582;2022-09-03T03:51:36;101682.20;;;13.22
69435;BMP180;56625;54.322;18.582;2022-09-03T03:54:05;101685.60;;;13.20
69435;BMP180;56625;54.322;18.582;2022-09-03T03:56:33;101680.40;;;13.20
69435;BMP180;56625;54.322;18.582;2022-09-03T03:59:02;101678.60;;;13.20
69435;BMP180;56625;54.322;18.582;2022-09-03T04:01:31;101680.40;;;13.18
69435;BMP180;56625;54.322;18.582;2022-09-03T04:03:59;101677.80;;;13.20
69435;BMP180;56625;54.322;18.582;2022-09-03T04:06:27;101677.00;;;13.12
69435;BMP180;56625;54.322;18.582;2022-09-03T04:08:55;101677.40;;;13.10
69435;BMP180;56625;54.322;18.582;2022-09-03T04:11:24;101671.20;;;13.10
69435;BMP180;56625;54.322;18.582;2022-09-03T04:13:53;101677.40;;;13.10
69435;BMP180;56625;54.322;18.582;2022-09-03T04:16:24;101676.20;;;13.10
69435;BMP180;56625;54.322;18.582;2022-09-03T04:18:56;101677.80;;;13.10
69435;BMP180;56625;54.322;18.582;2022-09-03T04:21:27;101679.20;;;13.20
69435;BMP180;56625;54.322;18.582;2022-09-03T04:23:57;101675.00;;;13.30
69435;BMP180;56625;54.322;18.582;2022-09-03T04:26:28;101673.80;;;13.50
69435;BMP180;56625;54.322;18.582;2022-09-03T04:29:07;101672.60;;;13.46
69435;BMP180;56625;54.322;18.582;2022-09-03T04:31:37;101673.80;;;13.30
69435;BMP180;56625;54.322;18.582;2022-09-03T04:34:06;101680.00;;;13.10
69435;BMP180;56625;54.322;18.582;2022-09-03T04:36:34;101679.60;;;12.90
69435;BMP180;56625;54.322;18.582;2022-09-03T04:39:04;101677.00;;;12.80
69435;BMP180;56625;54.322;18.582;2022-09-03T04:41:31;101681.20;;;12.70
69435;BMP180;56625;54.322;18.582;2022-09-03T04:43:59;101677.80;;;12.60
69435;BMP180;56625;54.322;18.582;2022-09-03T04:46:28;101680.40;;;12.50
69435;BMP180;56625;54.322;18.582;2022-09-03T04:49:01;101680.80;;;12.50
69435;BMP180;56625;54.322;18.582;2022-09-03T04:51:29;101679.00;;;12.50
69435;BMP180;56625;54.322;18.582;2022-09-03T04:54:00;101685.40;;;12.70
69435;BMP180;56625;54.322;18.582;2022-09-03T04:56:32;101694.80;;;12.80
69435;BMP180;56625;54.322;18.582;2022-09-03T04:59:04;101695.80;;;12.90
69435;BMP180;56625;54.322;18.582;2022-09-03T05:01:35;101694.40;;;12.90
69435;BMP180;56625;54.322;18.582;2022-09-03T05:04:04;101695.80;;;12.70
69435;BMP180;56625;54.322;18.582;2022-09-03T05:06:34;101695.80;;;12.50
69435;BMP180;56625;54.322;18.582;2022-09-03T05:09:05;101699.80;;;12.40
69435;BMP180;56625;54.322;18.582;2022-09-03T05:11:33;101699.40;;;12.30
69435;BMP180;56625;54.322;18.582;2022-09-03T05:14:01;101698.60;;;12.30
69435;BMP180;56625;54.322;18.582;2022-09-03T05:16:29;101698.20;;;12.30
69435;BMP180;56625;54.322;18.582;2022-09-03T05:18:59;101697.80;;;12.30
69435;BMP180;56625;54.322;18.582;2022-09-03T05:21:28;101697.60;;;12.32
69435;BMP180;56625;54.322;18.582;2022-09-03T05:23:58;101703.40;;;12.46
69435;BMP180;56625;54.322;18.582;2022-09-03T05:26:34;101697.80;;;12.58
69435;BMP180;56625;54.322;18.582;2022-09-03T05:29:06;101696.60;;;12.84
69435;BMP180;56625;54.322;18.582;2022-09-03T05:31:37;101703.60;;;13.10
69435;BMP180;56625;54.322;18.582;2022-09-03T05:34:08;101691.20;;;13.36
69435;BMP180;56625;54.322;18.582;2022-09-03T05:36:43;101694.60;;;13.50
69435;BMP180;56625;54.322;18.582;2022-09-03T05:39:13;101699.00;;;13.74
69435;BMP180;56625;54.322;18.582;2022-09-03T05:41:41;101698.60;;;14.00
69435;BMP180;56625;54.322;18.582;2022-09-03T05:44:09;101697.20;;;14.14
69435;BMP180;56625;54.322;18.582;2022-09-03T05:46:37;101694.80;;;14.20
69435;BMP180;56625;54.322;18.582;2022-09-03T05:49:06;101691.60;;;14.32
69435;BMP180;56625;54.322;18.582;2022-09-03T05:51:36;101697.00;;;14.40
69435;BMP180;56625;54.322;18.582;2022-09-03T05:54:06;101695.40;;;14.50
69435;BMP180;56625;54.322;18.582;2022-09-03T05:56:37;101693.20;;;14.60
69435;BMP180;56625;54.322;18.582;2022-09-03T05:59:09;101689.40;;;14.60
69435;BMP180;56625;54.322;18.582;2022-09-03T06:01:43;101686.80;;;14.70
69435;BMP180;56625;54.322;18.582;2022-09-03T06:04:19;101685.00;;;14.80
69435;BMP180;56625;54.322;18.582;2022-09-03T06:06:47;101684.40;;;14.90
69435;BMP180;56625;54.322;18.582;2022-09-03T06:09:19;101679.80;;;15.00
69435;BMP180;56625;54.322;18.582;2022-09-03T06:11:50;101677.60;;;15.00
69435;BMP180;56625;54.322;18.582;2022-09-03T06:14:19;101675.40;;;15.10
69435;BMP180;56625;54.322;18.582;2022-09-03T06:16:48;101677.00;;;15.10
69435;BMP180;56625;54.322;18.582;2022-09-03T06:19:19;101666.60;;;15.10
69435;BMP180;56625;54.322;18.582;2022-09-03T06:21:50;101662.60;;;15.10
69435;BMP180;56625;54.322;18.582;2022-09-03T06:24:23;101662.60;;;15.10
69435;BMP180;56625;54.322;18.582;2022-09-03T06:26:55;101663.00;;;15.20
69435;BMP180;56625;54.322;18.582;2022-09-03T06:29:26;101674.00;;;15.30
69435;BMP180;56625;54.322;18.582;2022-09-03T06:31:55;101681.40;;;15.50
69435;BMP180;56625;54.322;18.582;2022-09-03T06:34:23;101679.20;;;15.52
69435;BMP180;56625;54.322;18.582;2022-09-03T06:36:53;101685.00;;;15.50
69435;BMP180;56625;54.322;18.582;2022-09-03T06:39:24;101689.40;;;15.40
69435;BMP180;56625;54.322;18.582;2022-09-03T06:41:56;101689.20;;;15.30
69435;BMP180;56625;54.322;18.582;2022-09-03T06:44:24;101694.60;;;15.30
69435;BMP180;56625;54.322;18.582;2022-09-03T06:46:55;101695.80;;;15.20
69435;BMP180;56625;54.322;18.582;2022-09-03T06:49:26;101696.40;;;15.10
69435;BMP180;56625;54.322;18.582;2022-09-03T06:51:56;101699.00;;;15.10
69435;BMP180;56625;54.322;18.582;2022-09-03T06:54:26;101698.00;;;15.20
69435;BMP180;56625;54.322;18.582;2022-09-03T06:56:54;101699.20;;;15.30
69435;BMP180;56625;54.322;18.582;2022-09-03T06:59:22;101695.20;;;15.40
69435;BMP180;56625;54.322;18.582;2022-09-03T07:01:53;101694.20;;;15.60
69435;BMP180;56625;54.322;18.582;2022-09-03T07:04:33;101697.20;;;15.72
69435;BMP180;56625;54.322;18.582;2022-09-03T07:07:06;101689.20;;;15.92
69435;BMP180;56625;54.322;18.582;2022-09-03T07:10:00;101693.60;;;16.20
69435;BMP180;56625;54.322;18.582;2022-09-03T07:12:33;101696.40;;;16.40
69435;BMP180;56625;54.322;18.582;2022-09-03T07:15:06;101696.20;;;16.60
69435;BMP180;56625;54.322;18.582;2022-09-03T07:17:34;101692.20;;;16.80
69435;BMP180;56625;54.322;18.582;2022-09-03T07:20:17;101686.20;;;16.90
69435;BMP180;56625;54.322;18.582;2022-09-03T07:22:53;101687.40;;;17.00
69435;BMP180;56625;54.322;18.582;2022-09-03T07:25:30;101686.00;;;17.20
69435;BMP180;56625;54.322;18.582;2022-09-03T07:27:58;101682.60;;;17.40
69435;BMP180;56625;54.322;18.582;2022-09-03T07:30:39;101691.20;;;17.56
69435;BMP180;56625;54.322;18.582;2022-09-03T07:33:26;101684.60;;;17.74
69435;BMP180;56625;54.322;18.582;2022-09-03T07:36:08;101687.20;;;18.00
69435;BMP180;56625;54.322;18.582;2022-09-03T07:39:01;101688.60;;;18.10
69435;BMP180;56625;54.322;18.582;2022-09-03T07:41:43;101687.60;;;18.20
69435;BMP180;56625;54.322;18.582;2022-09-03T07:44:18;101685.80;;;18.32
69435;BMP180;56625;54.322;18.582;2022-09-03T07:47:06;101691.80;;;18.50
69435;BMP180;56625;54.322;18.582;2022-09-03T07:50:13;101691.80;;;18.50
69435;BMP180;56625;54.322;18.582;2022-09-03T07:52:57;101698.20;;;18.50
69435;BMP180;56625;54.322;18.582;2022-09-03T07:55:37;101699.20;;;18.44
69435;BMP180;56625;54.322;18.582;2022-09-03T07:58:23;101696.00;;;18.38
69435;BMP180;56625;54.322;18.582;2022-09-03T08:00:54;101696.00;;;18.30
69435;BMP180;56625;54.322;18.582;2022-09-03T08:03:24;101701.60;;;18.30
69435;BMP180;56625;54.322;18.582;2022-09-03T08:05:52;101699.00;;;18.30
69435;BMP180;56625;54.322;18.582;2022-09-03T08:08:21;101695.60;;;18.20
69435;BMP180;56625;54.322;18.582;2022-09-03T08:10:49;101710.00;;;18.20
69435;BMP180;56625;54.322;18.582;2022-09-03T08:13:19;101708.20;;;18.10
69435;BMP180;56625;54.322;18.582;2022-09-03T08:15:55;101715.60;;;18.10
69435;BMP180;56625;54.322;18.582;2022-09-03T08:18:26;101717.40;;;18.00
69435;BMP180;56625;54.322;18.582;2022-09-03T08:21:18;101720.40;;;17.96
69435;BMP180;56625;54.322;18.582;2022-09-03T08:23:53;101728.40;;;17.90
69435;BMP180;56625;54.322;18.582;2022-09-03T08:26:23;101729.60;;;17.80
69435;BMP180;56625;54.322;18.582;2022-09-03T08:28:52;101735.80;;;17.56
69435;BMP180;56625;54.322;18.582;2022-09-03T08:31:22;101737.60;;;17.44
69435;BMP180;56625;54.322;18.582;2022-09-03T08:33:54;101730.60;;;17.40
69435;BMP180;56625;54.322;18.582;2022-09-03T08:36:26;101731.40;;;17.40
69435;BMP180;56625;54.322;18.582;2022-09-03T08:38:56;101726.60;;;17.44
69435;BMP180;56625;54.322;18.582;2022-09-03T08:44:29;101727.00;;;18.00
69435;BMP180;56625;54.322;18.582;2022-09-03T08:50:25;101727.60;;;17.90
69435;BMP180;56625;54.322;18.582;2022-09-03T08:53:12;101729.60;;;17.92
69435;BMP180;56625;54.322;18.582;2022-09-03T08:55:50;101728.60;;;17.90
69435;BMP180;56625;54.322;18.582;2022-09-03T08:58:22;101736.60;;;17.90
69435;BMP180;56625;54.322;18.582;2022-09-03T09:12:50;101729.20;;;18.64
69435;BMP180;56625;54.322;18.582;2022-09-03T09:15:56;101725.20;;;18.66
69435;BMP180;56625;54.322;18.582;2022-09-03T09:21:39;101733.60;;;18.38
69435;BMP180;56625;54.322;18.582;2022-09-03T09:24:41;101730.60;;;18.50
69435;BMP180;56625;54.322;18.582;2022-09-03T09:27:15;101729.60;;;18.62
69435;BMP180;56625;54.322;18.582;2022-09-03T09:29:50;101734.00;;;18.80
69435;BMP180;56625;54.322;18.582;2022-09-03T09:32:19;101731.00;;;18.90
69435;BMP180;56625;54.322;18.582;2022-09-03T09:34:48;101725.80;;;18.90
69435;BMP180;56625;54.322;18.582;2022-09-03T09:37:19;101730.40;;;18.72
69435;BMP180;56625;54.322;18.582;2022-09-03T09:39:59;101725.60;;;18.90
69435;BMP180;56625;54.322;18.582;2022-09-03T09:42:27;101731.20;;;19.00
69435;BMP180;56625;54.322;18.582;2022-09-03T09:45:09;101731.60;;;19.00
69435;BMP180;56625;54.322;18.582;2022-09-03T09:47:39;101724.60;;;19.10
69435;BMP180;56625;54.322;18.582;2022-09-03T09:50:25;101727.20;;;19.00
69435;BMP180;56625;54.322;18.582;2022-09-03T09:53:07;101734.00;;;18.90
69435;BMP180;56625;54.322;18.582;2022-09-03T09:55:55;101730.20;;;18.70
69435;BMP180;56625;54.322;18.582;2022-09-03T09:58:27;101737.20;;;18.80
69435;BMP180;56625;54.322;18.582;2022-09-03T10:03:35;101724.80;;;19.00
69435;BMP180;56625;54.322;18.582;2022-09-03T10:06:08;101733.40;;;19.08
69435;BMP180;56625;54.322;18.582;2022-09-03T10:09:27;101731.20;;;19.20
69435;BMP180;56625;54.322;18.582;2022-09-03T10:17:51;101738.00;;;18.74
69435;BMP180;56625;54.322;18.582;2022-09-03T10:21:31;101730.00;;;18.70
69435;BMP180;56625;54.322;18.582;2022-09-03T10:23:58;101727.20;;;18.80
69435;BMP180;56625;54.322;18.582;2022-09-03T10:26:35;101734.40;;;18.80
69435;BMP180;56625;54.322;18.582;2022-09-03T10:29:06;101729.00;;;18.86
69435;BMP180;56625;54.322;18.582;2022-09-03T10:31:44;101725.20;;;19.10
69435;BMP180;56625;54.322;18.582;2022-09-03T10:46:18;101715.20;;;19.10
69435;BMP180;56625;54.322;18.582;2022-09-03T10:49:38;101722.00;;;18.92
69435;BMP180;56625;54.322;18.582;2022-09-03T10:52:42;101723.80;;;18.40
69435;BMP180;56625;54.322;18.582;2022-09-03T10:55:59;101733.00;;;18.32
69435;BMP180;56625;54.322;18.582;2022-09-03T11:05:00;101715.80;;;18.70
69435;BMP180;56625;54.322;18.582;2022-09-03T11:07:45;101713.40;;;19.10
69435;BMP180;56625;54.322;18.582;2022-09-03T11:10:30;101713.20;;;19.40
69435;BMP180;56625;54.322;18.582;2022-09-03T11:13:25;101700.40;;;19.64
69435;BMP180;56625;54.322;18.582;2022-09-03T11:16:05;101703.80;;;19.60
69435;BMP180;56625;54.322;18.582;2022-09-03T11:18:59;101708.80;;;19.50
69435;BMP180;56625;54.322;18.582;2022-09-03T11:21:32;101705.00;;;19.70
69435;BMP180;56625;54.322;18.582;2022-09-03T11:24:27;101712.00;;;19.72
69435;BMP180;56625;54.322;18.582;2022-09-03T11:32:50;101701.60;;;18.92
69435;BMP180;56625;54.322;18.582;2022-09-03T11:41:12;101700.60;;;18.54
69435;BMP180;56625;54.322;18.582;2022-09-03T11:43:42;101704.40;;;18.50
69435;BMP180;56625;54.322;18.582;2022-09-03T11:46:28;101698.80;;;18.70
69435;BMP180;56625;54.322;18.582;2022-09-03T11:49:12;101694.60;;;18.90
69435;BMP180;56625;54.322;18.582;2022-09-03T11:51:40;101696.00;;;18.94
69435;BMP180;56625;54.322;18.582;2022-09-03T11:56:41;101689.00;;;18.90
69435;BMP180;56625;54.322;18.582;2022-09-03T12:04:41;101692.00;;;18.76
69435;BMP180;56625;54.322;18.582;2022-09-03T12:07:49;101689.80;;;18.30
69435;BMP180;56625;54.322;18.582;2022-09-03T12:10:35;101683.20;;;18.40
69435;BMP180;56625;54.322;18.582;2022-09-03T12:13:46;101689.60;;;18.38
69435;BMP180;56625;54.322;18.582;2022-09-03T12:16:30;101689.40;;;18.12
69435;BMP180;56625;54.322;18.582;2022-09-03T12:19:39;101684.80;;;18.22
69435;BMP180;56625;54.322;18.582;2022-09-03T12:22:14;101682.20;;;18.46
69435;BMP180;56625;54.322;18.582;2022-09-03T12:24:42;101679.80;;;18.60
69435;BMP180;56625;54.322;18.582;2022-09-03T12:27:18;101677.40;;;18.70
69435;BMP180;56625;54.322;18.582;2022-09-03T12:29:58;101676.40;;;18.76
69435;BMP180;56625;54.322;18.582;2022-09-03T12:32:36;101670.20;;;18.60
69435;BMP180;56625;54.322;18.582;2022-09-03T12:35:18;101670.60;;;18.60
69435;BMP180;56625;54.322;18.582;2022-09-03T12:38:07;101673.60;;;18.30
69435;BMP180;56625;54.322;18.582;2022-09-03T12:40:43;101675.60;;;18.30
69435;BMP180;56625;54.322;18.582;2022-09-03T12:43:31;101675.20;;;18.30
69435;BMP180;56625;54.322;18.582;2022-09-03T12:46:14;101666.60;;;18.30
69435;BMP180;56625;54.322;18.582;2022-09-03T12:49:05;101664.40;;;18.30
69435;BMP180;56625;54.322;18.582;2022-09-03T12:52:47;101664.60;;;18.36
69435;BMP180;56625;54.322;18.582;2022-09-03T12:55:09;101658.20;;;18.20
69435;BMP180;56625;54.322;18.582;2022-09-03T12:57:48;101654.60;;;18.10
69435;BMP180;56625;54.322;18.582;2022-09-03T13:00:33;101656.00;;;18.30
69435;BMP180;56625;54.322;18.582;2022-09-03T13:03:37;101646.60;;;18.40
69435;BMP180;56625;54.322;18.582;2022-09-03T13:06:20;101653.60;;;18.40
69435;BMP180;56625;54.322;18.582;2022-09-03T13:08:55;101643.40;;;18.30
69435;BMP180;56625;54.322;18.582;2022-09-03T13:11:25;101647.40;;;18.30
69435;BMP180;56625;54.322;18.582;2022-09-03T13:14:10;101647.60;;;18.40
69435;BMP180;56625;54.322;18.582;2022-09-03T13:19:56;101638.20;;;18.16
69435;BMP180;56625;54.322;18.582;2022-09-03T13:31:42;101630.20;;;18.10
69435;BMP180;56625;54.322;18.582;2022-09-03T13:34:47;101635.00;;;17.90
69435;BMP180;56625;54.322;18.582;2022-09-03T13:40:23;101634.60;;;17.90
69435;BMP180;56625;54.322;18.582;2022-09-03T13:43:02;101640.60;;;17.70
69435;BMP180;56625;54.322;18.582;2022-09-03T13:45:39;101624.40;;;17.50
69435;BMP180;56625;54.322;18.582;2022-09-03T13:48:18;101633.40;;;17.40
69435;BMP180;56625;54.322;18.582;2022-09-03T13:56:48;101637.60;;;17.30
69435;BMP180;56625;54.322;18.582;2022-09-03T13:59:45;101637.80;;;17.40
69435;BMP180;56625;54.322;18.582;2022-09-03T14:02:52;101640.60;;;17.40
69435;BMP180;56625;54.322;18.582;2022-09-03T14:05:46;101635.20;;;17.40
69435;BMP180;56625;54.322;18.582;2022-09-03T14:08:39;101635.00;;;17.60
69435;BMP180;56625;54.322;18.582;2022-09-03T14:16:53;101635.40;;;17.90
69435;BMP180;56625;54.322;18.582;2022-09-03T14:23:04;101629.20;;;17.90
69435;BMP180;56625;54.322;18.582;2022-09-03T14:25:34;101630.40;;;17.70
69435;BMP180;56625;54.322;18.582;2022-09-03T14:28:33;101632.80;;;17.50
69435;BMP180;56625;54.322;18.582;2022-09-03T14:31:23;101626.20;;;17.50
69435;BMP180;56625;54.322;18.582;2022-09-03T14:34:25;101626.80;;;17.60
69435;BMP180;56625;54.322;18.582;2022-09-03T14:40:29;101632.40;;;17.10
69435;BMP180;56625;54.322;18.582;2022-09-03T14:52:41;101616.20;;;17.00
69435;BMP180;56625;54.322;18.582;2022-09-03T14:55:48;101616.00;;;17.00
69435;BMP180;56625;54.322;18.582;2022-09-03T14:58:49;101615.20;;;17.00
69435;BMP180;56625;54.322;18.582;2022-09-03T15:01:34;101614.40;;;16.80
69435;BMP180;56625;54.322;18.582;2022-09-03T15:04:42;101618.00;;;16.80
69435;BMP180;56625;54.322;18.582;2022-09-03T15:07:30;101615.80;;;16.80
69435;BMP180;56625;54.322;18.582;2022-09-03T15:10:57;101611.80;;;16.80
69435;BMP180;56625;54.322;18.582;2022-09-03T15:13:30;101608.60;;;16.80
69435;BMP180;56625;54.322;18.582;2022-09-03T15:21:40;101599.20;;;16.90
69435;BMP180;56625;54.322;18.582;2022-09-03T15:24:31;101604.00;;;17.00
69435;BMP180;56625;54.322;18.582;2022-09-03T15:30:09;101614.00;;;17.10
69435;BMP180;56625;54.322;18.582;2022-09-03T15:36:01;101618.80;;;16.80
69435;BMP180;56625;54.322;18.582;2022-09-03T15:41:49;101616.00;;;16.80
69435;BMP180;56625;54.322;18.582;2022-09-03T15:44:33;101615.00;;;16.80
69435;BMP180;56625;54.322;18.582;2022-09-03T15:55:44;101618.80;;;16.60
69435;BMP180;56625;54.322;18.582;2022-09-03T15:58:38;101619.80;;;16.52
69435;BMP180;56625;54.322;18.582;2022-09-03T16:01:33;101616.80;;;16.50
69435;BMP180;56625;54.322;18.582;2022-09-03T16:04:16;101623.60;;;16.50
69435;BMP180;56625;54.322;18.582;2022-09-03T16:15:28;101632.00;;;16.40
69435;BMP180;56625;54.322;18.582;2022-09-03T16:18:37;101632.80;;;16.30
69435;BMP180;56625;54.322;18.582;2022-09-03T16:24:47;101628.60;;;16.20
69435;BMP180;56625;54.322;18.582;2022-09-03T16:27:54;101634.60;;;16.20
69435;BMP180;56625;54.322;18.582;2022-09-03T16:33:28;101632.80;;;16.20
69435;BMP180;56625;54.322;18.582;2022-09-03T16:51:07;101628.40;;;16.60
69435;BMP180;56625;54.322;18.582;2022-09-03T16:54:00;101629.40;;;16.70
69435;BMP180;56625;54.322;18.582;2022-09-03T17:06:28;101618.40;;;16.60
69435;BMP180;56625;54.322;18.582;2022-09-03T17:19:01;101615.40;;;16.24
69435;BMP180;56625;54.322;18.582;2022-09-03T17:22:09;101617.80;;;16.10
69435;BMP180;56625;54.322;18.582;2022-09-03T17:24:45;101621.40;;;15.90
69435;BMP180;56625;54.322;18.582;2022-09-03T17:27:48;101624.40;;;15.84
69435;BMP180;56625;54.322;18.582;2022-09-03T17:33:41;101625.40;;;15.70
69435;BMP180;56625;54.322;18.582;2022-09-03T17:36:39;101631.80;;;15.60
69435;BMP180;56625;54.322;18.582;2022-09-03T17:42:48;101640.60;;;15.48
69435;BMP180;56625;54.322;18.582;2022-09-03T17:48:38;101643.60;;;15.30
69435;BMP180;56625;54.322;18.582;2022-09-03T17:51:33;101636.20;;;15.20
69435;BMP180;56625;54.322;18.582;2022-09-03T17:54:31;101638.20;;;15.20
69435;BMP180;56625;54.322;18.582;2022-09-03T17:57:25;101637.20;;;15.10
69435;BMP180;56625;54.322;18.582;2022-09-03T18:00:11;101634.80;;;15.10
69435;BMP180;56625;54.322;18.582;2022-09-03T18:03:00;101632.80;;;15.02
69435;BMP180;56625;54.322;18.582;2022-09-03T18:05:45;101636.20;;;15.00
69435;BMP180;56625;54.322;18.582;2022-09-03T18:08:28;101643.20;;;15.00
69435;BMP180;56625;54.322;18.582;2022-09-03T18:11:21;101642.20;;;15.00
69435;BMP180;56625;54.322;18.582;2022-09-03T18:14:19;101645.80;;;14.92
69435;BMP180;56625;54.322;18.582;2022-09-03T18:19:35;101646.20;;;14.90
69435;BMP180;56625;54.322;18.582;2022-09-03T18:22:33;101648.40;;;14.90
69435;BMP180;56625;54.322;18.582;2022-09-03T18:25:25;101650.80;;;14.90
69435;BMP180;56625;54.322;18.582;2022-09-03T18:28:18;101654.80;;;14.80
69435;BMP180;56625;54.322;18.582;2022-09-03T18:31:13;101647.80;;;14.80
69435;BMP180;56625;54.322;18.582;2022-09-03T18:34:06;101650.60;;;14.80
69435;BMP180;56625;54.322;18.582;2022-09-03T18:36:58;101649.60;;;14.80
69435;BMP180;56625;54.322;18.582;2022-09-03T18:39:45;101649.80;;;14.76
69435;BMP180;56625;54.322;18.582;2022-09-03T18:46:02;101659.60;;;14.70
69435;BMP180;56625;54.322;18.582;2022-09-03T18:49:30;101662.20;;;14.66
69435;BMP180;56625;54.322;18.582;2022-09-03T19:06:37;101660.20;;;14.40
69435;BMP180;56625;54.322;18.582;2022-09-03T19:10:07;101665.40;;;14.30
69435;BMP180;56625;54.322;18.582;2022-09-03T19:13:26;101665.20;;;14.20